Time;durP1;ratioP1;P1;durP2;ratioP2;P2;SDS_P1;SDS_P2;PMS_P1;PMS_P2;Temp;Humidity;BMP_temperature;BMP_pressure;BME280_temperature;BME280_humidity;BME280_pressure;Samples;Min_cycle;Max_cycle;Signal;HPM_P1;HPM_P2
2022/04/27 00:00:02;;;;;;;32.50;20.90;;;;;;;2.88;77.53;100161.06;214305;1274;141200;-65
2022/04/27 00:05:25;;;;;;;32.40;20.30;;;;;;;2.73;77.51;100164.68;214238;1274;140315;-67
2022/04/27 00:10:28;;;;;;;28.60;20.00;;;;;;;2.64;77.52;100161.67;214471;1274;140849;-65
2022/04/27 00:15:31;;;;;;;37.40;22.00;;;;;;;2.58;77.68;100159.77;214431;1276;141324;-66
2022/04/27 00:21:10;;;;;;;31.60;19.60;;;;;;;2.50;77.40;100161.34;214114;1276;140373;-67
2022/04/27 00:26:13;;;;;;;40.10;21.90;;;;;;;2.41;77.37;100164.48;213292;1274;141933;-67
2022/04/27 00:31:14;;;;;;;37.30;21.20;;;;;;;2.30;77.43;100162.69;216177;1276;140872;-68
2022/04/27 00:36:17;;;;;;;38.80;23.30;;;;;;;2.32;78.09;100168.15;215971;1274;140481;-67
2022/04/27 00:41:19;;;;;;;40.00;19.60;;;;;;;2.43;78.42;100168.29;215502;1274;141479;-67
2022/04/27 00:46:22;;;;;;;34.70;21.70;;;;;;;2.56;78.82;100171.05;215642;1274;142083;-67
2022/04/27 00:51:26;;;;;;;31.90;22.90;;;;;;;2.51;77.61;100174.44;213900;1274;142281;-64
2022/04/27 00:56:28;;;;;;;35.40;21.00;;;;;;;2.43;77.85;100176.73;214580;1276;140753;-65
2022/04/27 01:01:31;;;;;;;40.10;21.30;;;;;;;2.40;77.96;100173.94;214858;1274;143917;-64
2022/04/27 01:06:35;;;;;;;38.30;22.30;;;;;;;2.32;77.78;100170.88;213899;1274;140831;-63
2022/04/27 01:11:38;;;;;;;42.70;24.20;;;;;;;2.27;78.36;100172.36;214220;1274;141675;-65
2022/04/27 01:16:40;;;;;;;38.70;23.60;;;;;;;2.26;78.13;100176.45;213910;1274;141678;-63
2022/04/27 01:21:43;;;;;;;37.00;24.90;;;;;;;2.21;77.98;100179.33;213401;1274;141758;-65
2022/04/27 01:26:50;;;;;;;45.50;27.70;;;;;;;2.09;77.70;100181.05;213284;1274;141944;-66
2022/04/27 01:32:00;;;;;;;26.70;18.30;;;;;;;1.95;77.98;100178.42;214077;1276;141379;-68
2022/04/27 01:42:26;;;;;;;33.70;20.10;;;;;;;1.71;78.08;100190.80;213973;1274;141857;-69
2022/04/27 01:47:28;;;;;;;29.30;18.90;;;;;;;1.62;78.49;100197.23;213891;1274;142494;-67
2022/04/27 01:57:54;;;;;;;32.70;21.60;;;;;;;1.54;78.73;100200.95;213267;1274;143008;-67
2022/04/27 02:02:55;;;;;;;39.40;22.40;;;;;;;1.56;79.18;100200.78;214289;1274;143512;-67
2022/04/27 02:07:58;;;;;;;43.80;23.00;;;;;;;1.61;79.23;100202.75;213772;1274;141428;-66
2022/04/27 02:13:02;;;;;;;32.40;21.50;;;;;;;1.60;78.81;100197.80;213392;1274;141354;-67
2022/04/27 02:18:06;;;;;;;34.00;18.60;;;;;;;1.55;78.81;100194.67;214629;1274;141033;-70
2022/04/27 02:23:09;;;;;;;26.90;16.50;;;;;;;1.48;78.68;100197.19;214144;1274;141447;-66
2022/04/27 02:28:11;;;;;;;30.80;19.70;;;;;;;1.37;78.50;100197.67;216030;1274;141832;-68
2022/04/27 02:33:14;;;;;;;32.30;17.70;;;;;;;1.30;79.23;100198.72;215478;1274;142308;-66
2022/04/27 02:38:16;;;;;;;28.50;20.30;;;;;;;1.30;79.32;100205.02;216023;1274;140860;-68
2022/04/27 02:43:19;;;;;;;37.80;19.20;;;;;;;1.38;79.58;100202.17;213948;1274;140096;-65
2022/04/27 02:48:22;;;;;;;25.40;16.40;;;;;;;1.44;79.50;100207.44;215905;1274;142190;-65
2022/04/27 02:53:25;;;;;;;27.50;16.00;;;;;;;1.40;78.84;100203.62;215750;1274;140541;-64
2022/04/27 02:58:27;;;;;;;27.30;14.20;;;;;;;1.32;78.80;100201.73;214748;1274;141203;-65
2022/04/27 03:03:30;;;;;;;24.70;13.80;;;;;;;1.22;78.83;100211.32;213688;1274;140036;-68
2022/04/27 03:08:32;;;;;;;26.50;15.00;;;;;;;1.13;79.14;100214.14;213774;1274;140672;-64
2022/04/27 03:13:35;;;;;;;26.80;17.20;;;;;;;1.09;79.74;100213.44;213477;1274;141093;-63
2022/04/27 03:18:38;;;;;;;27.00;16.80;;;;;;;1.10;79.78;100221.95;214030;1274;141443;-64
2022/04/27 03:23:41;;;;;;;28.10;18.20;;;;;;;1.07;79.61;100228.20;213907;1274;141353;-66
2022/04/27 03:28:44;;;;;;;28.20;19.10;;;;;;;1.05;79.60;100232.08;213285;1274;140229;-66
2022/04/27 03:33:47;;;;;;;34.70;21.40;;;;;;;1.03;79.66;100235.48;214277;1274;140733;-65
2022/04/27 03:38:50;;;;;;;26.80;20.00;;;;;;;1.03;79.82;100243.16;213990;1274;140265;-65
2022/04/27 03:43:52;;;;;;;33.80;23.00;;;;;;;1.03;79.87;100248.55;213444;1275;141500;-65
2022/04/27 03:48:55;;;;;;;23.90;17.20;;;;;;;1.12;80.16;100253.95;213182;1277;141597;-64
2022/04/27 03:53:57;;;;;;;37.70;20.90;;;;;;;1.18;80.35;100256.98;213224;1274;142058;-64
2022/04/27 03:59:00;;;;;;;38.70;22.00;;;;;;;1.24;80.51;100265.23;214214;1274;142135;-66
2022/04/27 04:04:06;;;;;;;35.30;21.60;;;;;;;1.34;80.62;100267.30;213231;1274;140529;-67
2022/04/27 04:09:09;;;;;;;42.20;22.30;;;;;;;1.40;80.44;100269.81;214794;1274;141976;-65
2022/04/27 04:14:12;;;;;;;29.60;19.70;;;;;;;1.45;80.59;100272.27;212980;1276;140436;-66
2022/04/27 04:19:14;;;;;;;42.50;25.60;;;;;;;1.57;80.78;100276.19;215014;1274;141236;-67
2022/04/27 04:24:17;;;;;;;30.10;22.20;;;;;;;1.77;81.25;100283.90;215897;1274;140616;-70
2022/04/27 04:29:19;;;;;;;44.90;25.20;;;;;;;2.00;81.18;100286.34;215951;1274;140915;-65
2022/04/27 04:34:21;;;;;;;35.80;23.00;;;;;;;2.23;81.08;100289.27;216006;1274;141298;-70
2022/04/27 04:39:24;;;;;;;34.90;21.60;;;;;;;2.47;81.18;100296.41;215995;1274;140811;-69
2022/04/27 04:44:27;;;;;;;33.60;22.60;;;;;;;2.67;81.28;100299.62;215917;1274;141774;-74
2022/04/27 04:49:29;;;;;;;49.00;29.30;;;;;;;2.83;81.02;100297.38;213535;1274;142161;-70
2022/04/27 04:54:33;;;;;;;58.50;36.00;;;;;;;3.02;81.50;100303.42;214360;1274;140081;-69
2022/04/27 04:59:37;;;;;;;51.70;34.20;;;;;;;3.28;81.78;100309.64;213391;1274;141016;-63
2022/04/27 05:04:39;;;;;;;61.80;38.80;;;;;;;3.52;81.70;100318.13;213927;1274;140864;-68
2022/04/27 05:09:42;;;;;;;64.50;40.30;;;;;;;3.81;81.91;100320.26;213849;1272;140633;-68
2022/04/27 05:14:44;;;;;;;62.90;41.90;;;;;;;4.11;82.15;100330.22;213502;1274;142501;-65
2022/04/27 05:19:49;;;;;;;70.40;45.30;;;;;;;4.47;82.03;100340.48;215645;1274;140727;-70
2022/04/27 05:24:52;;;;;;;79.50;48.50;;;;;;;4.81;81.73;100346.78;213036;1272;140204;-65
2022/04/27 05:35:16;;;;;;;69.20;44.10;;;;;;;5.44;81.59;100347.29;213268;1274;140686;-68
2022/04/27 05:40:19;;;;;;;68.20;44.10;;;;;;;5.77;81.31;100350.95;213731;1274;141271;-69
2022/04/27 05:45:22;;;;;;;62.60;44.90;;;;;;;6.07;81.67;100354.63;214505;1274;161555;-67
2022/04/27 05:50:25;;;;;;;75.00;46.00;;;;;;;6.35;81.13;100364.76;213220;1274;141261;-69
2022/04/27 05:55:28;;;;;;;69.80;45.90;;;;;;;6.59;80.90;100370.03;214464;1274;142342;-66
2022/04/27 06:00:30;;;;;;;69.90;45.20;;;;;;;6.84;80.34;100366.71;213957;1274;142362;-67
2022/04/27 06:05:33;;;;;;;50.70;32.40;;;;;;;7.11;80.69;100364.91;214433;1274;141500;-66
2022/04/27 06:10:35;;;;;;;47.00;34.10;;;;;;;7.39;80.18;100372.90;215441;1274;141791;-68
2022/04/27 06:15:39;;;;;;;54.30;34.70;;;;;;;7.74;80.55;100386.94;215088;1274;140450;-67
2022/04/27 06:20:42;;;;;;;52.80;34.90;;;;;;;8.10;80.60;100393.79;215416;1274;141171;-68
2022/04/27 06:25:51;;;;;;;56.40;36.10;;;;;;;8.41;80.25;100405.44;216151;1274;140837;-68
2022/04/27 06:30:54;;;;;;;47.90;33.30;;;;;;;8.65;79.26;100405.88;215888;1274;141108;-68
2022/04/27 06:35:56;;;;;;;49.10;32.00;;;;;;;8.88;78.98;100407.58;214412;1274;141897;-68
2022/04/27 06:41:01;;;;;;;43.40;30.10;;;;;;;9.15;78.74;100404.40;215374;1274;141399;-69
2022/04/27 07:40:12;;;;;;;40.20;25.80;;;;;;;13.71;73.08;100445.63;215078;1274;140494;-67
2022/04/27 07:45:15;;;;;;;;;;;;;;;14.38;73.24;100447.13;213504;1275;140199;-67
2022/04/27 07:50:19;;;;;;;30.70;21.70;;;;;;;14.95;72.64;100450.38;213341;1276;1082265;-68
2022/04/27 07:55:23;;;;;;;27.80;20.10;;;;;;;15.50;71.78;100450.39;213725;1274;141969;-68
2022/04/27 08:00:26;;;;;;;32.90;21.50;;;;;;;16.00;71.58;100451.04;213504;1274;141242;-67
2022/04/27 08:05:28;;;;;;;24.00;18.70;;;;;;;16.40;70.06;100446.92;214927;1274;142422;-67
2022/04/27 08:10:31;;;;;;;22.90;18.20;;;;;;;16.60;68.97;100451.45;213689;1274;139948;-67
2022/04/27 08:15:37;;;;;;;18.80;15.30;;;;;;;16.90;68.30;100453.64;215214;1274;140905;-68
2022/04/27 08:26:08;;;;;;;10.90;9.50;;;;;;;17.29;64.64;100460.19;214474;1274;139853;-67
2022/04/27 08:31:13;;;;;;;13.40;10.20;;;;;;;17.33;63.33;100454.45;214055;1274;140068;-68
2022/04/27 08:36:18;;;;;;;11.90;10.70;;;;;;;17.46;63.41;100455.74;215511;1274;140683;-67
2022/04/27 08:41:38;;;;;;;12.20;7.70;;;;;;;17.69;61.94;100456.64;215488;1274;141893;-68
2022/04/27 08:46:43;;;;;;;7.40;6.20;;;;;;;17.71;60.66;100460.42;215876;1274;139788;-68
2022/04/27 08:51:46;;;;;;;8.10;6.30;;;;;;;17.92;60.16;100465.67;215756;1274;139908;-68
2022/04/27 08:56:52;;;;;;;7.50;6.50;;;;;;;18.03;58.59;100467.20;215281;1274;140073;-69
2022/04/27 09:01:56;;;;;;;5.40;4.90;;;;;;;18.13;58.09;100466.95;215128;1274;139957;-68
2022/04/27 09:07:16;;;;;;;21.20;5.70;;;;;;;18.15;56.65;100460.65;214730;1274;141288;-68
2022/04/27 09:12:19;;;;;;;7.90;5.00;;;;;;;18.20;56.07;100455.80;214181;1274;139839;-67
2022/04/27 09:22:53;;;;;;;3.90;3.50;;;;;;;17.63;54.29;100463.66;214074;1275;140236;-68
2022/04/27 09:27:56;;;;;;;9.80;3.60;;;;;;;17.62;53.06;100467.75;213867;1274;139565;-69
2022/04/27 09:32:58;;;;;;;5.30;3.90;;;;;;;17.23;52.55;100471.52;214032;1273;140068;-69
2022/04/27 09:38:18;;;;;;;5.00;3.90;;;;;;;16.94;52.10;100470.31;213219;1274;140202;-68
2022/04/27 09:43:47;;;;;;;4.80;3.00;;;;;;;16.98;51.24;100464.85;213547;1274;140335;-67
2022/04/27 09:49:11;;;;;;;5.80;5.10;;;;;;;16.28;49.95;100468.77;214393;1274;150910;-68
2022/04/27 09:54:36;;;;;;;8.70;4.10;;;;;;;16.16;50.68;100465.77;214841;1274;140388;-69
2022/04/27 09:59:40;;;;;;;4.80;3.80;;;;;;;16.36;50.31;100463.14;213972;1274;140894;-70
2022/04/27 10:04:45;;;;;;;3.70;3.40;;;;;;;16.55;49.46;100462.45;214475;1274;142269;-68
2022/04/27 10:09:52;;;;;;;3.80;3.50;;;;;;;16.55;49.02;100464.06;214091;1274;140777;-68
2022/04/27 10:14:57;;;;;;;3.80;3.50;;;;;;;16.89;49.05;100466.30;213964;1274;141358;-68
2022/04/27 10:19:59;;;;;;;5.00;4.50;;;;;;;17.30;49.58;100457.92;213463;1274;142023;-69
2022/04/27 10:25:09;;;;;;;5.50;5.00;;;;;;;17.64;48.62;100458.12;213842;1274;142961;-68
2022/04/27 10:30:12;;;;;;;6.20;5.40;;;;;;;17.56;48.27;100458.54;215922;1274;141139;-70
2022/04/27 10:35:29;;;;;;;10.20;9.10;;;;;;;17.82;48.55;100458.08;215208;1274;140136;-68
2022/04/27 10:40:38;;;;;;;12.20;10.20;;;;;;;17.67;48.03;100467.45;216140;1274;141750;-68
2022/04/27 10:45:43;;;;;;;10.30;7.50;;;;;;;17.06;48.36;100469.64;216177;1274;139874;-68
2022/04/27 10:51:03;;;;;;;8.10;7.30;;;;;;;16.75;48.61;100471.58;215634;1274;140021;-68
2022/04/27 10:56:26;;;;;;;6.30;5.70;;;;;;;17.16;48.95;100466.31;213399;1275;140040;-67
2022/04/27 11:01:31;;;;;;;6.60;5.40;;;;;;;17.37;47.73;100469.34;214849;1274;140215;-66
2022/04/27 11:07:03;;;;;;;7.90;6.20;;;;;;;17.33;47.08;100465.08;214127;1274;139957;-67
2022/04/27 11:12:10;;;;;;;7.10;6.40;;;;;;;17.38;47.05;100465.57;215387;1274;140127;-69
2022/04/27 11:17:28;;;;;;;7.70;7.10;;;;;;;17.01;46.87;100472.79;214348;1274;141006;-70
2022/04/27 11:22:38;;;;;;;8.30;7.50;;;;;;;16.75;47.29;100472.98;214431;1274;140475;-68
2022/04/27 11:27:41;;;;;;;8.00;6.60;;;;;;;16.44;46.91;100476.27;213435;1274;140595;-66
2022/04/27 11:32:48;;;;;;;8.60;7.40;;;;;;;16.13;46.75;100475.27;214208;1274;140580;-69
2022/04/27 11:37:53;;;;;;;9.10;8.20;;;;;;;15.93;47.38;100481.45;213514;1274;140473;-68
2022/04/27 11:43:00;;;;;;;8.30;7.50;;;;;;;15.91;47.61;100483.16;213742;1275;140768;-68
2022/04/27 11:48:04;;;;;;;;;;;;;;;15.97;47.82;100482.24;214266;1275;139509;-67
2022/04/27 11:53:14;;;;;;;4.40;4.00;;;;;;;16.02;47.45;100481.93;214192;1274;125979;-68
2022/04/27 11:58:27;;;;;;;5.30;4.80;;;;;;;16.06;46.22;100487.09;214284;1274;139694;-68
2022/04/27 12:03:30;;;;;;;8.10;7.10;;;;;;;16.07;45.67;100482.74;213889;1275;139729;-67
2022/04/27 12:08:33;;;;;;;9.80;6.30;;;;;;;16.32;46.19;100482.46;213721;1274;140088;-66
2022/04/27 12:13:36;;;;;;;6.90;6.00;;;;;;;16.62;45.82;100483.13;215529;1274;139730;-68
2022/04/27 12:18:54;;;;;;;6.70;5.90;;;;;;;16.46;44.87;100482.27;215092;1274;139806;-69
2022/04/27 12:23:57;;;;;;;8.90;8.00;;;;;;;16.13;45.00;100480.87;215447;1274;140241;-69
2022/04/27 12:29:07;;;;;;;9.20;7.70;;;;;;;15.97;45.64;100482.73;214970;1274;163637;-68
2022/04/27 12:37:29;;;;;;;5.70;5.20;;;;;;;15.97;45.36;100474.08;216102;1274;141097;-68
2022/04/27 12:39:41;;;;;;;6.40;5.10;;;;;;;16.46;44.85;100466.18;215546;1274;140717;-67
2022/04/27 12:44:45;;;;;;;5.80;5.30;;;;;;;16.96;45.11;100464.02;216028;1276;220817;-67
2022/04/27 12:49:48;;;;;;;5.40;4.90;;;;;;;17.22;44.68;100469.30;215133;1274;139891;-67
2022/04/27 12:55:03;;;;;;;6.00;5.10;;;;;;;17.16;43.53;100467.98;214975;1274;141135;-68
2022/04/27 13:00:08;;;;;;;6.90;6.30;;;;;;;17.09;43.25;100464.27;214823;1274;139940;-67
2022/04/27 13:05:12;;;;;;;5.60;5.00;;;;;;;16.83;43.09;100463.61;213715;1274;139861;-68
2022/04/27 13:15:38;;;;;;;5.80;5.30;;;;;;;17.11;42.69;100465.25;214135;1274;139770;-68
2022/04/27 13:20:42;;;;;;;4.10;3.80;;;;;;;16.88;42.79;100468.17;214713;1274;141567;-68
2022/04/27 13:25:46;;;;;;;7.80;5.00;;;;;;;16.51;42.74;100464.02;214312;1274;140604;-68
2022/04/27 13:30:50;;;;;;;4.60;4.20;;;;;;;16.39;43.61;100457.30;213747;1274;139507;-68
2022/04/27 13:35:53;;;;;;;5.80;5.30;;;;;;;16.28;43.51;100462.62;214053;1274;139749;-67
2022/04/27 13:40:59;;;;;;;8.10;4.40;;;;;;;16.10;43.70;100463.37;214041;1274;141968;-67
2022/04/27 13:46:05;;;;;;;5.20;4.60;;;;;;;15.90;44.04;100462.72;214814;1275;140911;-67
2022/04/27 13:51:09;;;;;;;5.00;4.60;;;;;;;15.71;44.17;100462.44;214072;1274;142516;-67
2022/04/27 13:56:15;;;;;;;6.50;4.30;;;;;;;15.52;44.62;100463.11;214216;1274;140770;-70
2022/04/27 14:01:19;;;;;;;4.70;4.20;;;;;;;15.38;45.39;100462.95;214121;1274;142649;-68
2022/04/27 14:06:22;;;;;;;3.90;3.50;;;;;;;15.33;45.59;100461.86;213963;1275;140792;-68
2022/04/27 14:22:11;;;;;;;3.20;2.70;;;;;;;15.32;45.18;100462.65;215689;1274;140865;-69
2022/04/27 14:27:15;;;;;;;3.90;3.60;;;;;;;15.34;44.62;100459.45;215657;1276;141949;-68
2022/04/27 14:32:18;;;;;;;5.70;3.60;;;;;;;15.64;44.77;100462.56;215919;1275;141140;-67
2022/04/27 14:37:21;;;;;;;4.10;3.80;;;;;;;16.08;44.31;100460.75;215774;1275;140922;-67
2022/04/27 14:42:24;;;;;;;4.20;3.70;;;;;;;16.31;43.60;100459.41;216106;1274;140893;-68
2022/04/27 14:47:28;;;;;;;3.30;3.00;;;;;;;16.27;43.30;100454.97;215707;1274;235823;-67
2022/04/27 14:52:32;;;;;;;7.30;3.70;;;;;;;16.24;43.19;100450.73;214897;1274;139894;-66
2022/04/27 14:57:35;;;;;;;3.00;2.70;;;;;;;16.15;43.12;100454.38;215593;1276;139972;-66
2022/04/27 15:02:38;;;;;;;4.10;3.80;;;;;;;15.99;43.21;100465.88;214064;1276;141271;-66
2022/04/27 15:07:42;;;;;;;5.90;4.60;;;;;;;15.80;43.40;100470.77;214293;1275;140082;-68
2022/04/27 15:12:45;;;;;;;4.10;3.70;;;;;;;15.60;43.88;100467.45;213557;1274;141031;-65
2022/04/27 15:17:49;;;;;;;7.80;3.20;;;;;;;15.46;44.21;100469.04;212958;1274;141540;-66
2022/04/27 15:22:52;;;;;;;4.90;4.10;;;;;;;15.37;44.57;100471.64;214721;1274;141882;-67
2022/04/27 15:27:57;;;;;;;4.80;3.50;;;;;;;15.27;44.65;100471.88;213661;1275;141252;-69
2022/04/27 15:33:01;;;;;;;3.70;3.10;;;;;;;15.16;44.82;100474.21;213174;1274;141704;-69
2022/04/27 15:38:06;;;;;;;4.60;3.90;;;;;;;15.06;45.04;100470.14;213528;1276;140468;-69
2022/04/27 15:43:10;;;;;;;5.30;3.10;;;;;;;14.97;45.04;100474.27;214015;1274;210043;-68
2022/04/27 15:48:35;;;;;;;3.90;3.50;;;;;;;14.98;45.05;100471.59;214287;1274;140299;-66
2022/04/27 15:53:41;;;;;;;6.70;5.00;;;;;;;15.01;45.31;100469.79;214210;1274;141723;-72
2022/04/27 15:58:45;;;;;;;7.20;4.30;;;;;;;15.13;45.27;100468.90;213441;1274;142014;-71
2022/04/27 16:03:48;;;;;;;6.30;3.50;;;;;;;15.14;45.03;100468.65;214705;1274;140809;-73
2022/04/27 16:08:52;;;;;;;3.70;3.40;;;;;;;15.10;45.23;100469.50;214001;1274;140965;-74
2022/04/27 16:13:55;;;;;;;6.00;3.90;;;;;;;15.03;44.79;100473.10;215464;1274;140310;-74
2022/04/27 16:18:59;;;;;;;6.00;3.50;;;;;;;14.95;44.78;100465.57;216009;1274;140242;-72
2022/04/27 16:24:03;;;;;;;3.90;3.60;;;;;;;14.74;44.71;100473.35;214815;1275;141711;-69
2022/04/27 16:29:07;;;;;;;7.40;5.20;;;;;;;14.51;45.28;100474.58;213722;1275;140120;-68
2022/04/27 16:34:10;;;;;;;5.00;4.00;;;;;;;14.32;46.01;100476.84;214964;1276;141794;-68
2022/04/27 16:39:14;;;;;;;3.70;3.30;;;;;;;14.12;46.32;100481.19;215244;1274;139905;-71
2022/04/27 16:44:17;;;;;;;5.00;4.30;;;;;;;13.98;46.76;100483.41;215910;1274;141156;-69
2022/04/27 16:49:21;;;;;;;4.70;4.10;;;;;;;13.86;46.86;100487.61;215277;1274;140299;-66
2022/04/27 16:54:28;;;;;;;13.80;4.80;;;;;;;13.73;47.77;100491.42;214021;1276;140559;-67
2022/04/27 16:59:34;;;;;;;;;;;;;;;13.58;48.55;100493.79;214300;1274;140356;-67
2022/04/27 17:04:43;;;;;;;7.80;4.00;;;;;;;13.40;50.03;100499.62;215198;1274;126671;-67
2022/04/27 17:09:48;;;;;;;9.50;5.20;;;;;;;13.28;50.11;100502.39;213937;1274;139696;-66
2022/04/27 17:14:53;;;;;;;14.10;4.70;;;;;;;13.18;50.39;100507.14;214158;1274;139798;-68
2022/04/27 17:19:56;;;;;;;7.70;4.50;;;;;;;13.02;51.08;100514.67;213349;1274;140105;-68
2022/04/27 17:25:00;;;;;;;4.40;3.60;;;;;;;12.79;51.62;100521.09;213966;1274;139952;-68
2022/04/27 17:30:08;;;;;;;10.20;4.70;;;;;;;12.56;51.88;100521.50;214025;1274;139680;-65
2022/04/27 17:35:11;;;;;;;6.30;3.30;;;;;;;12.35;52.20;100528.94;213083;1274;142111;-68
2022/04/27 17:40:14;;;;;;;5.90;3.40;;;;;;;12.16;52.83;100531.75;214190;1274;141069;-66
2022/04/27 17:45:19;;;;;;;5.50;4.00;;;;;;;11.94;53.26;100534.70;214143;1274;140489;-67
2022/04/27 17:50:24;;;;;;;9.60;3.50;;;;;;;11.66;53.98;100538.48;213550;1274;141583;-67
2022/04/27 17:55:28;;;;;;;7.20;3.80;;;;;;;11.30;54.25;100543.33;213488;1274;140601;-66
2022/04/27 18:00:34;;;;;;;4.90;3.40;;;;;;;11.03;55.01;100543.72;215001;1274;141306;-68
2022/04/27 18:05:39;;;;;;;5.20;3.50;;;;;;;10.79;55.78;100557.82;214827;1274;140754;-65
2022/04/27 18:10:47;;;;;;;7.20;4.10;;;;;;;10.59;56.17;100565.46;215057;1274;140482;-67
2022/04/27 18:15:55;;;;;;;7.70;4.30;;;;;;;10.39;56.86;100564.52;213316;1275;140884;-67
2022/04/27 18:21:01;;;;;;;4.90;3.60;;;;;;;10.19;57.09;100569.34;214256;1274;142033;-67
2022/04/27 18:26:05;;;;;;;5.90;3.10;;;;;;;9.97;57.83;100582.98;215987;1274;140623;-69
2022/04/27 18:31:12;;;;;;;5.80;4.00;;;;;;;9.67;58.04;100591.30;215753;1274;139954;-69
2022/04/27 18:36:17;;;;;;;6.10;4.40;;;;;;;9.52;58.76;100598.23;215940;1274;139872;-68
2022/04/27 18:41:21;;;;;;;10.30;7.00;;;;;;;9.42;59.18;100605.42;215380;1274;140492;-67
2022/04/27 18:51:49;;;;;;;8.50;4.80;;;;;;;8.99;59.21;100619.98;214624;1274;140220;-69
2022/04/27 18:56:53;;;;;;;7.40;5.80;;;;;;;8.68;59.86;100622.56;214057;1274;140637;-66
2022/04/27 19:01:58;;;;;;;8.00;6.00;;;;;;;8.49;60.63;100630.16;212853;1275;140941;-67
2022/04/27 19:07:07;;;;;;;7.00;5.70;;;;;;;8.34;60.75;100628.87;215059;1274;139382;-68
2022/04/27 19:12:13;;;;;;;8.30;6.20;;;;;;;8.17;61.09;100632.53;214504;1274;139436;-67
2022/04/27 19:17:17;;;;;;;13.80;11.90;;;;;;;8.15;61.97;100630.40;214281;1274;139612;-66
2022/04/27 19:22:24;;;;;;;20.90;13.50;;;;;;;8.11;62.12;100629.02;213509;1274;143392;-66
2022/04/27 19:27:28;;;;;;;30.70;16.70;;;;;;;7.97;62.56;100630.50;214219;1274;142030;-67
2022/04/27 19:32:34;;;;;;;25.80;15.70;;;;;;;7.89;62.85;100628.41;213441;1274;141750;-71
2022/04/27 19:37:41;;;;;;;34.40;18.60;;;;;;;7.83;63.46;100634.92;213967;1274;141916;-65
2022/04/27 19:42:46;;;;;;;41.30;19.80;;;;;;;7.76;63.77;100640.61;213783;1274;155560;-67
2022/04/27 19:47:51;;;;;;;51.50;24.80;;;;;;;7.67;63.75;100640.89;212573;1274;942286;-65
2022/04/27 19:52:57;;;;;;;42.80;20.50;;;;;;;7.56;64.04;100641.52;214005;1274;141880;-68
2022/04/27 19:58:01;;;;;;;17.30;8.80;;;;;;;7.47;64.24;100635.98;214413;1274;142016;-70
2022/04/27 20:03:05;;;;;;;16.20;9.80;;;;;;;7.21;64.05;100638.60;213940;1274;141426;-67
2022/04/27 20:08:09;;;;;;;20.70;12.40;;;;;;;7.04;64.62;100639.35;214208;1274;140767;-67
2022/04/27 20:13:15;;;;;;;21.40;12.70;;;;;;;6.90;64.80;100638.52;215607;1274;151454;-69
2022/04/27 20:18:20;;;;;;;25.50;13.40;;;;;;;6.63;64.79;100642.96;212872;1274;141492;-66
2022/04/27 20:23:24;;;;;;;17.80;10.50;;;;;;;6.39;65.27;100644.23;215581;1274;143400;-68
2022/04/27 20:28:31;;;;;;;14.50;8.00;;;;;;;6.23;66.13;100644.63;215125;1274;142467;-73
2022/04/27 20:33:36;;;;;;;18.30;11.80;;;;;;;6.13;66.47;100647.48;216125;1274;140974;-72
2022/04/27 20:38:44;;;;;;;20.10;11.80;;;;;;;6.11;66.90;100649.49;215888;1272;140556;-68
2022/04/27 20:43:49;;;;;;;22.30;12.50;;;;;;;6.11;66.84;100651.61;215472;1274;141316;-67
2022/04/27 20:48:53;;;;;;;28.50;14.30;;;;;;;6.03;66.98;100658.32;215641;1274;140717;-65
2022/04/27 20:53:58;;;;;;;23.10;15.40;;;;;;;5.93;67.22;100661.81;214992;1274;141457;-67
2022/04/27 20:59:02;;;;;;;12.90;8.90;;;;;;;5.79;67.38;100666.40;214731;1274;141924;-68
2022/04/27 21:04:06;;;;;;;10.80;9.10;;;;;;;5.65;67.63;100669.11;214609;1274;142188;-65
2022/04/27 21:09:12;;;;;;;18.70;11.30;;;;;;;5.47;67.91;100671.27;214508;1274;141356;-66
2022/04/27 21:14:16;;;;;;;20.00;13.10;;;;;;;5.35;67.91;100679.04;214401;1274;143981;-66
2022/04/27 21:19:20;;;;;;;27.20;12.20;;;;;;;5.26;68.27;100679.34;213355;1274;142466;-65
2022/04/27 21:24:24;;;;;;;30.80;15.20;;;;;;;5.22;68.87;100684.08;213672;1274;141681;-65
2022/04/27 21:29:30;;;;;;;37.80;17.40;;;;;;;5.21;68.88;100688.56;213229;1274;144085;-65
2022/04/27 21:34:35;;;;;;;39.50;18.50;;;;;;;5.11;68.90;100690.13;213966;1274;141287;-65
2022/04/27 21:39:38;;;;;;;35.10;17.40;;;;;;;5.04;69.24;100686.34;213354;1274;141235;-65
2022/04/27 21:44:41;;;;;;;49.80;21.40;;;;;;;4.92;69.37;100690.63;213215;1274;140700;-65
2022/04/27 21:49:45;;;;;;;47.50;20.70;;;;;;;4.86;69.63;100693.14;213390;1274;142512;-65
2022/04/27 21:54:47;;;;;;;48.40;21.30;;;;;;;4.71;69.57;100692.74;214806;1274;141282;-63
2022/04/27 21:59:49;;;;;;;43.90;20.60;;;;;;;4.59;69.64;100695.02;214546;1274;141083;-63
2022/04/27 22:04:52;;;;;;;24.90;13.80;;;;;;;4.47;69.60;100698.97;215142;1274;140415;-66
2022/04/27 22:09:55;;;;;;;28.90;16.10;;;;;;;4.32;69.80;100697.07;215627;1274;142350;-65
2022/04/27 22:14:58;;;;;;;19.60;12.70;;;;;;;4.19;70.13;100697.60;213877;1274;152546;-64
2022/04/27 22:20:00;;;;;;;18.10;14.40;;;;;;;4.10;70.46;100694.67;215836;1274;141009;-63
2022/04/27 22:25:03;;;;;;;22.60;15.90;;;;;;;4.00;70.80;100696.31;216201;1274;140932;-66
2022/04/27 22:30:05;;;;;;;24.30;15.40;;;;;;;3.93;71.11;100696.38;215623;1274;140677;-65
2022/04/27 22:35:07;;;;;;;23.40;14.90;;;;;;;3.91;71.39;100701.16;215897;1274;140475;-68
2022/04/27 22:40:10;;;;;;;25.30;14.10;;;;;;;3.93;71.66;100698.88;216250;1274;141427;-67
2022/04/27 22:45:13;;;;;;;20.10;14.10;;;;;;;3.98;71.59;100696.35;215940;1274;140921;-66
2022/04/27 22:50:17;;;;;;;27.60;18.00;;;;;;;3.94;71.60;100700.49;214709;1274;140279;-65
2022/04/27 22:55:21;;;;;;;26.30;16.50;;;;;;;3.87;71.35;100696.68;214624;1276;142375;-65
2022/04/27 23:00:23;;;;;;;27.90;15.40;;;;;;;3.74;71.39;100693.49;214183;1274;140924;-66
2022/04/27 23:05:26;;;;;;;25.20;16.50;;;;;;;3.63;71.64;100691.77;213871;1274;141101;-65
2022/04/27 23:15:52;;;;;;;39.80;24.10;;;;;;;3.57;72.10;100691.67;214122;1274;140367;-66
2022/04/27 23:20:55;;;;;;;38.80;28.30;;;;;;;3.54;72.12;100696.39;213996;1274;140659;-66
2022/04/27 23:25:59;;;;;;;50.00;29.00;;;;;;;3.45;72.05;100693.21;213488;1274;141226;-66
2022/04/27 23:31:03;;;;;;;39.90;24.50;;;;;;;3.41;72.33;100691.67;213544;1274;140329;-67
2022/04/27 23:36:07;;;;;;;20.10;15.00;;;;;;;3.32;72.28;100693.88;213196;1274;142804;-66
2022/04/27 23:41:10;;;;;;;20.60;13.90;;;;;;;3.17;72.43;100687.76;214747;1276;143048;-66
2022/04/27 23:46:15;;;;;;;21.90;14.90;;;;;;;3.01;72.40;100680.48;213995;1274;141118;-67
2022/04/27 23:51:19;;;;;;;29.80;18.10;;;;;;;2.92;72.56;100674.67;214665;1274;142017;-65
2022/04/27 23:56:21;;;;;;;26.10;18.10;;;;;;;2.87;73.17;100668.67;213294;1274;141075;-65
